Latest Weather Observations for Narrandera Airport

IDN60801

Issued at 12:13 pm EDT Monday 26 October 2020 (issued every 10 minutes, with the page automatically refreshed every 10 minutes)

About weather observations | Map of weather stations | Latest weather observations for NSW | Other Formats
Station Details ID: 074148 Name: NARRANDERA AIRPORT AWS Lat: -34.70 Lon: 146.51 Height: 145.0 m
Data from the previous 72 hours. | See also: Recent months at Narrandera Airport
Date/Time
EDT
Temp
°C
App
Temp
°C
Dew
Point
°C
Rel
Hum
%
Delta-T
°C
Wind Press
QNH
hPa
Press
MSL
hPa
Rain since
9am
mm
Dir  Spd
km/h
Gust
km/h
Spd
kts
Gust
kts
26/12:00pm 11.1 8.9 10.9 99 0.1 SE 13 17 7 9 1020.7 1020.4 7.0
26/11:30am 11.3 9.2 11.1 99 0.1 S 13 17 7 9 1020.6 1020.3 5.2
26/11:00am 11.3 8.8 11.0 98 0.2 SSE 15 22 8 12 1020.7 1020.4 4.8
26/10:30am 11.0 8.4 10.8 99 0.1 SSE 15 20 8 11 1020.8 1020.5 4.6
26/10:00am 10.2 7.8 10.2 100 0.0 SSE 13 19 7 10 1020.4 1020.1 4.4
26/09:30am 9.9 7.4 9.8 99 0.1 S 13 20 7 11 1020.1 1019.8 3.0
26/09:00am 10.1 7.7 10.0 99 0.1 SSE 13 17 7 9 1020.1 1019.8 5.8
26/08:30am 10.3 7.9 10.0 98 0.2 SSE 13 17 7 9 1019.7 1019.4 3.2
26/08:00am 10.7 8.6 9.8 94 0.5 SSE 11 15 6 8 1019.2 1019.0 2.0
26/07:30am 11.0 8.8 9.4 90 0.8 SSE 11 13 6 7 1018.7 1018.5 1.2
26/07:00am 11.3 9.6 9.7 90 0.8 SSE 9 13 5 7 1018.2 1017.9 1.0
26/06:30am 11.5 10.0 10.7 95 0.4 S 9 13 5 7 1017.5 1017.2 1.0
26/06:00am 11.7 10.4 11.2 97 0.3 S 9 11 5 6 1017.2 1016.9 1.0
26/05:30am 11.9 11.2 11.3 96 0.3 SSE 6 9 3 5 1017.1 1016.8 1.0
26/05:00am 12.0 11.0 11.1 94 0.5 SSE 7 11 4 6 1016.7 1016.4 0.8
26/04:30am 12.4 11.3 10.6 89 0.9 SE 7 11 4 6 1016.5 1016.2 0.6
26/04:00am 12.5 10.3 10.7 89 0.9 SSE 13 17 7 9 1016.2 1015.9 0.6
26/03:30am 12.7 11.7 11.1 90 0.8 S 7 11 4 6 1016.2 1015.9 0.4
26/03:00am 12.9 11.6 11.1 89 1.0 S 9 11 5 6 1016.3 1016.0 0.4
26/02:30am 13.2 11.7 10.7 85 1.3 SE 9 13 5 7 1016.4 1016.1 0.4
26/02:00am 13.3 12.4 11.4 88 1.0 SE 7 11 4 6 1016.5 1016.2 0.4
26/01:30am 13.3 11.7 11.5 89 1.0 SE 11 13 6 7 1016.6 1016.3 0.4
26/01:00am 12.7 11.4 11.3 91 0.7 SE 9 11 5 6 1016.9 1016.6 0.4
26/12:30am 13.5 12.0 11.9 90 0.9 SE 11 13 6 7 1016.9 1016.6 0.4
26/12:00am 13.5 12.5 12.2 92 0.7 SSE 9 13 5 7 1016.9 1016.6 0.4
 
Date/Time
EDT
Temp
°C
App
Temp
°C
Dew
Point
°C
Rel
Hum
%
Delta-T
°C
Wind Press
QNH
hPa
Press
MSL
hPa
Rain since
9am
mm
Dir  Spd
km/h
Gust
km/h
Spd
kts
Gust
kts
25/11:30pm 13.3 12.4 11.5 89 1.0 ESE 7 9 4 5 1016.9 1016.6 0.4
25/11:00pm 13.4 11.8 11.6 89 1.0 ESE 11 11 6 6 1016.9 1016.6 0.4
25/10:30pm 14.0 12.6 12.2 89 1.0 E 11 13 6 7 1017.0 1016.7 0.4
25/10:00pm 13.9 13.3 13.4 97 0.3 ESE 9 11 5 6 1017.0 1016.7 0.4
25/09:30pm 13.5 13.5 13.5 100 0.0 SE 6 9 3 5 1016.7 1016.4 0.4
25/09:00pm 13.6 14.7 13.4 99 0.1 CALM 0 0 0 0 1016.4 1016.1 0.4
25/08:30pm 13.4 14.2 12.6 95 0.4 CALM 0 0 0 0 1016.2 1015.9 0.4
25/08:00pm 14.1 13.9 13.0 93 0.6 NE 6 6 3 3 1015.9 1015.6 0.4
25/07:30pm 14.6 15.6 13.1 91 0.8 CALM 0 0 0 0 1015.6 1015.3 0.4
25/07:00pm 14.7 14.1 12.2 85 1.4 S 7 11 4 6 1015.1 1014.8 0.4
25/06:30pm 16.2 12.8 11.2 72 2.7 ENE 20 28 11 15 1014.8 1014.5 0.2
25/06:00pm 16.9 13.4 10.3 65 3.5 ESE 19 24 10 13 1014.4 1014.1 0.2
25/05:30pm 18.5 15.0 10.1 58 4.5 ESE 19 28 10 15 1014.1 1013.8 0.2
25/05:00pm 18.6 15.0 9.7 56 4.7 ESE 19 28 10 15 1013.7 1013.4 0.2
25/04:30pm 19.0 15.2 9.8 55 4.9 SE 20 24 11 13 1013.4 1013.1 0.2
25/04:00pm 18.0 13.8 9.6 58 4.5 SE 22 30 12 16 1013.2 1012.9 0.2
25/03:30pm 18.4 14.8 8.4 52 5.2 SSE 17 26 9 14 1013.2 1012.9 0.2
25/03:00pm 19.2 14.9 7.0 45 6.2 S 19 26 10 14 1013.3 1013.0 0.2
25/02:30pm 18.5 14.5 6.7 46 5.9 SSE 17 26 9 14 1013.5 1013.2 0.2
25/02:00pm 18.7 15.1 6.9 46 6.0 SSE 15 22 8 12 1013.7 1013.4 0.2
25/01:30pm 18.3 14.4 7.1 48 5.7 SSE 17 26 9 14 1013.8 1013.5 0.2
25/01:00pm 19.3 15.7 8.3 49 5.7 S 17 24 9 13 1013.9 1013.6 0.2
25/12:30pm 18.0 13.9 7.7 51 5.3 S 19 32 10 17 1014.1 1013.8 0.2
25/12:00pm 17.9 14.7 7.0 49 5.5 SSW 13 24 7 13 1014.3 1014.0 0.2
25/11:30am 16.0 12.3 6.4 53 4.7 S 15 24 8 13 1014.5 1014.2 0.2
25/11:00am 15.4 11.6 5.6 52 4.7 S 15 24 8 13 1014.6 1014.3 0.2
25/10:30am 15.4 10.9 5.9 53 4.6 SSW 19 28 10 15 1014.6 1014.3 0.0
25/10:00am 13.8 9.0 4.4 53 4.4 S 19 30 10 16 1014.6 1014.3 0.0
25/09:30am 11.9 6.5 4.4 60 3.4 SSW 22 28 12 15 1014.3 1014.0 0.0
25/09:00am 10.6 5.8 4.7 67 2.7 SSW 19 26 10 14 1014.2 1013.9 8.6
25/08:30am 9.5 4.1 4.3 70 2.3 SSW 22 30 12 16 1013.8 1013.5 8.6
25/08:00am 8.4 2.6 4.2 75 1.8 SSW 24 32 13 17 1013.5 1013.2 8.6
25/07:30am 7.9 3.0 4.1 77 1.7 SSW 19 28 10 15 1013.3 1013.0 8.6
25/07:00am 7.0 3.1 3.6 79 1.5 SW 13 20 7 11 1012.9 1012.6 8.6
25/06:30am 6.9 3.0 3.3 78 1.5 SW 13 20 7 11 1012.6 1012.2 8.6
25/06:00am 7.1 3.6 3.3 77 1.6 SW 11 17 6 9 1012.1 1011.8 8.6
25/05:30am 7.5 3.3 3.6 76 1.7 SW 15 20 8 11 1011.6 1011.3 8.6
25/05:00am 7.2 2.8 2.9 74 1.8 SW 15 24 8 13 1011.3 1011.0 8.6
25/04:30am 7.1 2.3 2.8 74 1.8 SW 17 28 9 15 1011.0 1010.7 8.6
25/04:00am 7.4 3.0 2.7 72 2.0 SW 15 22 8 12 1010.9 1010.6 8.6
25/03:30am 7.5 3.1 2.8 72 2.0 SW 15 20 8 11 1010.7 1010.4 8.6
25/03:00am 7.8 3.4 2.5 69 2.2 SW 15 22 8 12 1010.6 1010.3 8.6
25/02:30am 8.4 4.0 2.6 67 2.5 SW 15 24 8 13 1010.5 1010.2 8.6
25/02:00am 9.0 3.9 2.8 65 2.7 SW 19 28 10 15 1010.4 1010.1 8.6
25/01:30am 9.3 4.3 3.5 67 2.5 SW 19 26 10 14 1010.4 1010.1 8.6
25/01:00am 9.7 4.5 3.4 65 2.8 SW 20 33 11 18 1010.4 1010.1 8.6
25/12:30am 10.2 4.0 4.4 67 2.6 SW 26 43 14 23 1010.2 1009.9 8.6
25/12:00am 10.8 5.3 5.8 71 2.3 SW 24 37 13 20 1010.1 1009.8 8.6
 
Date/Time
EDT
Temp
°C
App
Temp
°C
Dew
Point
°C
Rel
Hum
%
Delta-T
°C
Wind Press
QNH
hPa
Press
MSL
hPa
Rain since
9am
mm
Dir  Spd
km/h
Gust
km/h
Spd
kts
Gust
kts
24/11:30pm 11.1 5.4 6.5 73 2.2 SW 26 37 14 20 1010.0 1009.7 8.6
24/11:00pm 11.8 5.7 6.7 71 2.4 SW 28 39 15 21 1009.7 1009.4 8.6
24/10:30pm 12.4 7.0 6.5 67 2.8 SW 24 37 13 20 1009.6 1009.3 8.6
24/10:00pm 12.9 7.1 6.3 64 3.2 SW 26 37 14 20 1009.3 1009.0 8.6
24/09:30pm 13.5 6.4 6.4 62 3.4 SW 33 44 18 24 1008.9 1008.6 8.6
24/09:00pm 14.0 7.6 7.1 63 3.4 SW 30 43 16 23 1008.2 1007.9 8.6
24/08:30pm 14.2 8.0 7.9 66 3.2 SSW 30 50 16 27 1007.8 1007.5 8.6
24/08:25pm 14.3 8.5 8.0 66 3.2 SSW 28 50 15 27 1007.7 1007.4 8.6
24/08:00pm 14.3 8.5 7.8 65 3.3 SW 28 43 15 23 1007.2 1006.9 8.6
24/07:30pm 14.1 9.5 8.1 67 3.0 SW 22 30 12 16 1007.0 1006.7 8.6
24/07:00pm 14.8 9.3 9.0 68 3.0 SW 28 46 15 25 1006.3 1005.9 8.6
24/06:54pm 15.2 9.8 9.6 69 2.9 SW 28 46 15 25 1006.3 1005.9 8.6
24/06:30pm 15.6 9.7 10.6 72 2.7 SW 32 46 17 25 1005.7 1005.3 8.6
24/06:05pm 16.8 12.2 12.3 75 2.5 SW 28 46 15 25 1004.7 1004.4 8.6
24/06:00pm 16.8 11.3 11.9 73 2.7 SW 32 46 17 25 1004.6 1004.3 8.6
24/05:30pm 17.5 12.7 13.0 75 2.5 SW 30 43 16 23 1003.8 1003.5 8.6
24/05:02pm 18.3 14.4 14.4 78 2.3 SW 28 46 15 25 1003.3 1003.0 8.6
24/05:00pm 18.3 13.9 14.2 77 2.4 SW 30 46 16 25 1003.3 1003.0 8.6
24/04:56pm 18.5 14.2 14.4 77 2.4 SW 30 48 16 26 1003.2 1002.9 8.6
24/04:30pm 19.4 16.6 16.4 83 1.8 SW 26 43 14 23 1002.4 1002.1 8.6
24/04:07pm 19.9 17.9 17.3 85 1.6 SW 24 37 13 20 1002.3 1002.0 8.6
24/04:00pm 19.9 18.0 17.7 87 1.4 SW 24 37 13 20 1002.2 1001.9 8.6
24/03:46pm 19.4 16.4 16.8 85 1.6 SW 28 46 15 25 1002.2 1001.9 7.6
24/03:43pm 20.2 16.9 16.0 77 2.5 SW 28 46 15 25 1002.1 1001.8 5.4
24/03:30pm 25.8 24.5 15.8 54 6.1 WSW 17 28 9 15 1001.6 1001.3 4.8
24/03:00pm 24.1 22.6 14.2 54 5.9 SW 15 26 8 14 1001.8 1001.5 4.8
24/02:30pm 24.4 22.9 15.3 57 5.5 W 17 28 9 15 1002.3 1002.0 4.8
24/02:00pm 22.7 21.8 15.8 65 4.2 SW 15 20 8 11 1002.8 1002.5 4.8
24/01:30pm 22.7 22.9 16.7 69 3.7 WSW 11 17 6 9 1002.9 1002.6 4.8
24/01:00pm 21.8 22.1 17.0 74 3.0 SW 11 19 6 10 1003.2 1002.9 4.8
24/12:30pm 20.8 20.6 16.8 78 2.4 SW 13 17 7 9 1003.8 1003.5 4.8
24/12:25pm 21.3 22.3 18.7 85 1.6 SW 11 15 6 8 1003.7 1003.4 4.8
24/12:00pm 20.4 22.1 18.0 86 1.5 SW 6 11 3 6 1004.0 1003.7 4.8
24/11:44am 20.0 21.4 17.4 85 1.6 SW 6 7 3 4 1003.9 1003.6 4.8
24/11:30am 19.8 21.3 18.1 90 1.1 E 7 11 4 6 1003.7 1003.4 4.8
24/11:09am 18.6 20.2 18.3 98 0.2 ENE 7 13 4 7 1003.6 1003.3 4.8
24/11:00am 18.5 20.4 18.5 100 0.0 ESE 6 9 3 5 1003.6 1003.3 4.8
24/10:52am 18.0 19.5 18.0 100 0.0 SSE 7 11 4 6 1003.6 1003.3 4.8
24/10:39am 17.6 17.0 17.6 100 0.0 SW 17 33 9 18 1003.9 1003.6 4.8
24/10:33am 17.8 16.6 17.6 99 0.1 WNW 20 33 11 18 1004.2 1003.9 4.4
24/10:30am 19.0 18.5 19.0 100 0.0 NNW 20 33 11 18 1004.5 1004.2 2.2
24/10:19am 18.9 18.5 18.9 100 0.0 N 19 26 10 14 1004.3 1004.0 2.2
24/10:00am 19.0 20.9 19.0 100 0.0 N 7 15 4 8 1004.1 1003.8 2.0
24/09:34am 18.6 21.3 18.6 100 0.0 NE 2 7 1 4 1004.1 1003.8 1.6
24/09:30am 18.5 20.8 18.5 100 0.0 NE 4 7 2 4 1004.1 1003.8 1.4
24/09:00am 18.4 21.4 18.4 100 0.0 CALM 0 0 0 0 1004.1 1003.8 11.0
24/08:30am 18.4 21.4 18.4 100 0.0 CALM 0 0 0 0 1003.9 1003.6 10.6
24/08:00am 18.2 20.7 18.2 100 0.0 SSE 2 7 1 4 1003.6 1003.3 10.6
24/07:30am 18.2 21.1 18.2 100 0.0 CALM 0 0 0 0 1003.4 1003.1 10.6
24/07:00am 18.2 20.7 18.2 100 0.0 SSW 2 6 1 3 1003.5 1003.2 10.6
24/06:55am 18.2 21.0 18.0 99 0.1 CALM 0 2 0 1 1003.5 1003.2 10.6
24/06:36am 18.2 20.0 18.2 100 0.0 WSW 6 11 3 6 1003.6 1003.3 10.6
24/06:30am 18.2 19.3 18.0 99 0.1 W 9 13 5 7 1003.6 1003.3 10.6
24/06:00am 18.1 19.7 17.9 99 0.1 ENE 6 9 3 5 1002.7 1002.4 10.6
24/05:30am 18.1 19.5 17.8 98 0.2 NE 7 9 4 5 1002.4 1002.1 10.6
24/05:00am 18.3 19.9 17.8 97 0.3 NE 6 9 3 5 1002.5 1002.2 10.6
24/04:30am 18.5 20.0 17.7 95 0.5 N 6 9 3 5 1002.8 1002.5 10.6
24/04:00am 18.1 19.0 17.5 96 0.4 NE 9 13 5 7 1002.5 1002.2 10.6
24/03:30am 17.8 19.2 16.5 92 0.8 N 4 9 2 5 1003.1 1002.8 10.6
24/03:00am 18.5 18.4 17.0 91 0.9 NNE 13 20 7 11 1003.6 1003.3 10.6
24/02:30am 18.7 16.9 17.0 90 1.0 NNE 22 32 12 17 1003.8 1003.5 10.6
24/02:00am 18.1 17.5 17.5 96 0.4 NNE 17 20 9 11 1004.0 1003.7 10.6
24/01:30am 17.7 17.8 17.4 98 0.2 NNE 13 17 7 9 1004.5 1004.2 10.6
24/01:00am 17.9 17.7 17.6 98 0.2 NNE 15 20 8 11 1004.9 1004.6 10.6
24/12:30am 18.0 16.8 17.4 96 0.4 NE 20 28 11 15 1004.6 1004.3 10.6
24/12:00am 18.2 16.7 17.6 96 0.4 NE 22 28 12 15 1004.3 1004.0 10.6
 
Date/Time
EDT
Temp
°C
App
Temp
°C
Dew
Point
°C
Rel
Hum
%
Delta-T
°C
Wind Press
QNH
hPa
Press
MSL
hPa
Rain since
9am
mm
Dir  Spd
km/h
Gust
km/h
Spd
kts
Gust
kts
23/11:30pm 17.9 18.2 17.9 100 0.0 ENE 13 20 7 11 1004.7 1004.4 10.6
23/11:00pm 18.1 17.7 18.1 100 0.0 NE 17 24 9 13 1005.6 1005.2 10.2
23/10:51pm 18.1 18.1 18.1 100 0.0 NE 15 20 8 11 1005.8 1005.4 9.4
23/10:30pm 18.4 18.9 18.4 100 0.0 WNW 13 20 7 11 1007.0 1006.7 7.6
23/10:29pm 18.4 18.9 18.4 100 0.0 WNW 13 20 7 11 1007.2 1006.9 6.8
23/10:00pm 18.4 18.9 18.4 100 0.0 ESE 13 15 7 8 1006.2 1005.8 2.6
23/09:30pm 18.7 20.0 18.5 99 0.1 S 9 13 5 7 1006.3 1005.9 2.0
23/09:00pm 19.0 20.0 18.7 98 0.2 ESE 11 19 6 10 1006.5 1006.1 1.4
23/08:30pm 19.1 19.1 18.1 94 0.6 E 15 20 8 11 1005.8 1005.4 1.4
23/08:00pm 19.3 21.8 17.3 88 1.2 CALM 0 6 0 3 1006.1 1005.7 1.4
23/07:30pm 19.8 22.4 17.4 86 1.5 CALM 0 0 0 0 1006.0 1005.6 1.2
23/07:00pm 19.9 21.4 17.5 86 1.5 SSE 6 11 3 6 1005.7 1005.3 1.2
23/06:30pm 20.0 20.5 17.4 85 1.6 E 11 15 6 8 1005.5 1005.1 1.2
23/06:00pm 20.5 19.7 17.9 85 1.6 E 19 24 10 13 1005.4 1005.0 1.2
23/05:30pm 20.0 19.8 17.6 86 1.5 E 15 20 8 11 1005.5 1005.1 1.2
23/05:00pm 20.3 21.8 17.7 85 1.6 E 6 7 3 4 1006.7 1006.3 1.0
23/04:30pm 20.3 22.3 16.9 81 2.1 S 2 7 1 4 1007.0 1006.7 1.0
23/04:00pm 19.5 17.9 16.5 83 1.8 WSW 20 30 11 16 1006.8 1006.5 1.0
23/03:30pm 20.4 15.9 16.4 78 2.4 W 35 59 19 32 1007.0 1006.7 0.0
23/03:29pm 20.5 15.3 16.5 78 2.4 W 39 65 21 35 1007.0 1006.7 0.0
23/03:24pm 21.2 14.5 16.0 72 3.1 WNW 46 65 25 35 1006.6 1006.2 0.0
23/03:18pm 21.6 18.1 15.4 68 3.7 NW 28 65 15 35 1005.9 1005.5 0.0
23/03:16pm 23.4 21.2 14.4 57 5.3 NNW 19 56 10 30 1006.0 1005.6 0.0
23/03:00pm 24.4 22.5 14.2 53 6.1 ENE 17 26 9 14 1005.6 1005.2 0.0
23/02:55pm 24.7 22.3 13.9 51 6.4 NE 19 26 10 14 1005.7 1005.3 0.0
23/02:30pm 29.7 27.4 11.7 33 10.5 NNW 15 22 8 12 1006.4 1006.0 0.0
23/02:00pm 29.9 28.3 12.8 35 10.2 W 13 28 7 15 1007.0 1006.7 0.0
23/01:30pm 29.8 26.3 13.5 36 9.8 N 24 35 13 19 1007.5 1007.2 0.0
23/01:00pm 28.3 24.6 13.8 41 8.7 N 26 43 14 23 1008.2 1007.9 0.0
23/12:30pm 28.1 22.7 12.8 38 9.0 N 33 43 18 23 1008.8 1008.5 0.0

Other formats

Comma delimited format used in spreadsheet applications
http://www.bom.gov.au/fwo/IDN60801/IDN60801.95706.axf

JavaScript Object Notation format (JSON) in row-major order
http://www.bom.gov.au/fwo/IDN60801/IDN60801.95706.json

Data quality

Most of these data are generated automatically and are frequently updated. Quality checks on data are not normally performed. It is possible for incorrect values to appear. Refer to information at About Latest Weather Observations and please check the disclaimer before using these data.